createdAt,value
2019-01-25T00:03:41.054Z,-2.70
2019-01-25T00:08:40.176Z,-2.60
2019-01-25T00:18:37.340Z,-2.70
2019-01-25T00:26:06.288Z,-2.50
2019-01-25T00:31:05.051Z,-2.40
2019-01-25T00:38:32.772Z,-2.40
2019-01-25T00:43:31.377Z,-2.20
2019-01-25T00:46:00.806Z,-2.50
2019-01-25T00:55:57.983Z,-2.20
2019-01-25T00:58:27.439Z,-2.30
2019-01-25T01:03:26.151Z,-2.40
2019-01-25T01:10:53.983Z,-2.30
2019-01-25T01:15:52.643Z,-2.10
2019-01-25T01:25:49.645Z,-2.90
2019-01-25T01:30:48.207Z,-2.40
2019-01-25T01:35:47.048Z,-2.20
2019-01-25T01:38:16.443Z,-2.30
2019-01-25T01:43:14.953Z,-2.10
2019-01-25T01:45:44.338Z,-2.40
2019-01-25T01:50:42.974Z,-2.40
2019-01-25T01:53:12.325Z,-2.30
2019-01-25T01:58:10.808Z,-2.60
2019-01-25T02:05:38.778Z,-2.30
2019-01-25T02:10:37.365Z,-2.40
2019-01-25T02:13:06.734Z,-2.20
2019-01-25T02:18:05.393Z,-2.60
2019-01-25T02:25:33.003Z,-2.70
2019-01-25T02:30:31.838Z,-2.40
2019-01-25T02:35:30.370Z,-2.20
2019-01-25T02:37:59.743Z,-2.40
2019-01-25T02:45:27.491Z,-2.00
2019-01-25T03:02:54.954Z,-2.30
2019-01-25T03:05:25.391Z,-2.60
2019-01-25T03:07:54.870Z,-2.50
2019-01-25T03:10:29.103Z,-2.40
2019-01-25T03:20:25.376Z,-2.30
2019-01-25T03:22:54.744Z,-2.50
2019-01-25T03:27:55.281Z,-2.70
2019-01-25T03:30:26.335Z,-2.30
2019-01-25T03:32:56.210Z,-2.30
2019-01-25T03:37:55.272Z,-2.30
2019-01-25T03:40:28.651Z,-2.20
2019-01-25T03:45:27.534Z,-2.30
2019-01-25T03:52:57.811Z,-2.20
2019-01-25T03:55:27.781Z,-2.50
2019-01-25T03:57:57.421Z,-2.30
2019-01-25T04:02:57.751Z,-2.30
2019-01-25T04:05:27.115Z,-2.40
2019-01-25T04:10:29.695Z,-2.10
2019-01-25T04:30:29.668Z,-2.20
2019-01-25T04:35:28.203Z,-2.50
2019-01-25T04:40:26.752Z,-2.30
2019-01-25T04:42:56.164Z,-2.00
2019-01-25T04:47:54.707Z,-2.10
2019-01-25T04:52:55.186Z,-2.10
2019-01-25T04:55:33.075Z,-1.80
2019-01-25T04:58:14.694Z,-2.20
2019-01-25T05:03:13.371Z,-2.00
2019-01-25T05:13:15.049Z,-2.10
2019-01-25T05:18:14.035Z,-2.10
2019-01-25T05:20:43.552Z,-2.00
2019-01-25T05:23:12.943Z,-2.10
2019-01-25T05:28:14.638Z,-2.20
2019-01-25T05:30:51.462Z,-2.40
2019-01-25T05:35:49.963Z,-2.10
2019-01-25T06:03:16.419Z,-2.40
2019-01-25T06:05:46.156Z,-2.40
2019-01-25T06:15:59.192Z,-2.10
2019-01-25T06:26:16.845Z,-2.30
2019-01-25T06:28:50.432Z,-2.40
2019-01-25T06:33:49.589Z,-2.30
2019-01-25T06:36:18.957Z,-2.30
2019-01-25T06:41:17.434Z,-2.60
2019-01-25T06:43:46.770Z,-2.60
2019-01-25T06:53:43.521Z,-2.60
2019-01-25T07:04:07.854Z,-2.90
2019-01-25T07:06:37.243Z,-2.60
2019-01-25T07:11:42.060Z,-2.80
2019-01-25T07:24:06.037Z,-2.50
2019-01-25T07:29:04.543Z,-2.70
2019-01-25T07:31:39.947Z,-2.50
2019-01-25T07:36:38.461Z,-2.40
2019-01-25T07:41:40.097Z,-2.40
2019-01-25T07:46:38.589Z,-2.30
2019-01-25T07:51:37.103Z,-2.40
2019-01-25T07:59:04.928Z,-2.20
2019-01-25T08:04:05.246Z,-2.10
2019-01-25T08:06:35.802Z,-2.70
2019-01-25T08:09:07.620Z,-2.40
2019-01-25T08:11:36.986Z,-2.00
2019-01-25T08:16:35.560Z,-2.20
2019-01-25T08:19:04.939Z,-1.90
2019-01-25T08:24:05.067Z,-2.20
2019-01-25T08:34:01.871Z,-1.00
2019-01-25T08:41:30.190Z,-1.80
2019-01-25T08:43:59.548Z,-1.90
2019-01-25T08:51:27.583Z,-1.90
2019-01-25T09:01:24.374Z,-1.50
2019-01-25T09:06:22.835Z,-1.60
2019-01-25T09:18:48.650Z,-1.20
2019-01-25T09:23:47.090Z,-1.00
2019-01-25T09:28:45.558Z,-1.30
2019-01-25T09:31:15.037Z,-1.30
2019-01-25T09:36:13.508Z,-1.40
2019-01-25T09:38:42.868Z,-1.40
2019-01-25T09:43:41.767Z,-1.30
2019-01-25T09:46:11.101Z,-1.10
2019-01-25T09:51:09.634Z,-1.00
2019-01-25T09:56:08.223Z,-1.30
2019-01-25T09:58:39.524Z,-1.10
2019-01-25T10:03:38.412Z,-1.20
2019-01-25T10:06:07.752Z,-1.50
2019-01-25T10:08:37.218Z,-1.00
2019-01-25T10:18:34.323Z,-0.70
2019-01-25T10:21:03.683Z,-0.70
2019-01-25T10:31:00.396Z,-0.40
2019-01-25T10:33:29.810Z,-0.40
2019-01-25T10:38:28.476Z,-0.50
2019-01-25T10:43:26.984Z,-0.40
2019-01-25T10:45:56.327Z,-0.30
2019-01-25T10:50:54.869Z,-0.60
2019-01-25T10:53:24.221Z,-0.30
2019-01-25T11:00:52.933Z,-0.20
2019-01-25T11:03:22.271Z,-0.40
2019-01-25T11:08:23.566Z,-0.10
2019-01-25T11:10:52.911Z,-0.30
2019-01-25T11:15:51.350Z,-0.30
2019-01-25T11:18:20.677Z,-0.20
2019-01-25T11:28:17.793Z,-0.10
2019-01-25T11:30:47.164Z,-0.20
2019-01-25T11:35:45.627Z,-0.30
2019-01-25T11:38:14.984Z,-0.10
2019-01-25T11:40:45.090Z,-0.10
2019-01-25T11:45:43.544Z,-0.20
2019-01-25T11:53:12.036Z,-0.10
2019-01-25T11:55:41.474Z,-0.30
2019-01-25T12:00:41.705Z,-0.20
2019-01-25T12:10:38.457Z,-0.20
2019-01-25T12:38:08.855Z,-0.30
2019-01-25T12:40:41.972Z,-0.10
2019-01-25T12:43:09.419Z,-0.30
2019-01-25T12:45:38.805Z,-0.30
2019-01-25T12:50:48.979Z,-0.20
2019-01-25T12:55:45.218Z,-0.30
2019-01-25T13:00:43.711Z,-0.40
2019-01-25T13:03:13.419Z,-0.40
2019-01-25T13:05:43.344Z,-0.30
2019-01-25T13:10:42.024Z,-0.30
2019-01-25T13:30:36.673Z,-0.20
2019-01-25T13:35:35.531Z,-0.40
2019-01-25T13:38:04.963Z,-0.30
2019-01-25T13:40:34.460Z,0.50
2019-01-25T13:45:33.010Z,-0.40
2019-01-25T13:48:02.384Z,-0.40
2019-01-25T14:00:35.110Z,-0.40
2019-01-25T14:03:04.605Z,-0.40
2019-01-25T14:08:03.118Z,-0.50
2019-01-25T14:10:35.903Z,-0.40
2019-01-25T14:15:35.722Z,-0.30
2019-01-25T14:18:05.751Z,-0.40
2019-01-25T14:20:35.266Z,-0.50
2019-01-25T14:23:04.615Z,-0.40
2019-01-25T14:25:33.952Z,-0.40
2019-01-25T14:28:03.781Z,-0.30
2019-01-25T14:30:39.250Z,-0.30
2019-01-25T14:38:07.529Z,-0.40
2019-01-25T14:43:06.014Z,-0.50
2019-01-25T14:45:35.454Z,-0.50
2019-01-25T14:53:04.584Z,-0.60
2019-01-25T14:55:33.952Z,-0.50
2019-01-25T15:00:32.429Z,-0.70
2019-01-25T15:08:00.030Z,-0.60
2019-01-25T15:12:58.599Z,-0.40
2019-01-25T15:15:28.203Z,-0.60
2019-01-25T15:22:56.685Z,-0.70
2019-01-25T15:27:55.164Z,-0.60
2019-01-25T15:30:28.013Z,-0.80
2019-01-25T15:35:26.713Z,-0.80
2019-01-25T15:40:25.258Z,-0.60
2019-01-25T15:42:54.688Z,-0.70
2019-01-25T15:47:53.909Z,-0.70
2019-01-25T16:00:28.169Z,-0.70
2019-01-25T16:02:57.941Z,-0.60
2019-01-25T16:05:27.677Z,-0.60
2019-01-25T16:10:26.195Z,-0.70
2019-01-25T16:17:57.749Z,-0.60
2019-01-25T16:35:29.621Z,-0.80
2019-01-25T16:40:32.868Z,-0.80
2019-01-25T16:48:04.695Z,-0.70
2019-01-25T17:05:35.478Z,-0.90
2019-01-25T17:08:05.860Z,-1.00
2019-01-25T17:10:35.540Z,-1.00
2019-01-25T17:13:05.619Z,-1.10
2019-01-25T17:18:05.704Z,-0.90
2019-01-25T17:20:35.258Z,-1.20
2019-01-25T17:30:37.213Z,-1.40
2019-01-25T17:43:07.027Z,-1.40
2019-01-25T17:48:06.886Z,-1.50
2019-01-25T17:55:34.658Z,-1.40
2019-01-25T17:58:08.063Z,-1.10
2019-01-25T18:05:41.018Z,-1.40
2019-01-25T18:18:07.115Z,-1.30
2019-01-25T18:25:42.530Z,-1.50
2019-01-25T18:35:58.251Z,-1.50
2019-01-25T18:40:57.175Z,-1.30
2019-01-25T18:43:26.513Z,-1.40
2019-01-25T18:53:23.596Z,-1.40
2019-01-25T19:00:51.210Z,-1.30
2019-01-25T19:08:18.779Z,-1.40
2019-01-25T19:10:48.119Z,-1.50
2019-01-25T19:25:43.216Z,-1.30
2019-01-25T19:28:12.611Z,-1.70
2019-01-25T19:40:41.948Z,-1.30
2019-01-25T19:48:10.021Z,-1.30
2019-01-25T19:58:27.160Z,-1.30
2019-01-25T20:00:56.676Z,-1.20
2019-01-25T20:03:26.139Z,-1.10
2019-01-25T20:10:53.750Z,-1.20
2019-01-25T20:13:23.198Z,-1.10
2019-01-25T20:15:52.572Z,-1.20
2019-01-25T20:30:49.741Z,-1.20
2019-01-25T20:33:18.913Z,-1.20
2019-01-25T20:38:17.401Z,-1.30
2019-01-25T20:45:45.683Z,-1.50
2019-01-25T20:50:44.434Z,-1.30
2019-01-25T20:53:15.337Z,-1.10
2019-01-25T20:55:45.321Z,-1.70
2019-01-25T21:00:44.249Z,-1.00
2019-01-25T21:05:44.748Z,-0.90
2019-01-25T21:13:12.374Z,-0.90
2019-01-25T21:28:13.012Z,-0.80
2019-01-25T21:30:42.712Z,-0.90
2019-01-25T21:33:12.188Z,-0.90
2019-01-25T21:38:10.710Z,-0.90
2019-01-25T21:40:40.121Z,-0.80
2019-01-25T21:48:09.757Z,-0.70
2019-01-25T21:50:44.767Z,-0.70
2019-01-25T22:05:45.422Z,-0.80
2019-01-25T22:08:14.823Z,-0.70
2019-01-25T22:10:44.751Z,-0.70
2019-01-25T22:13:14.187Z,-0.60
2019-01-25T22:15:50.451Z,-0.60
2019-01-25T22:30:40.459Z,-0.50
2019-01-25T22:48:05.642Z,-0.30
2019-01-25T22:50:35.546Z,-0.30
2019-01-25T22:55:34.298Z,-0.60
2019-01-25T23:00:48.534Z,-0.20
2019-01-25T23:06:30.949Z,-0.10
2019-01-25T23:09:05.778Z,-0.10
2019-01-25T23:14:05.759Z,-0.20
2019-01-25T23:16:35.147Z,0.00
2019-01-25T23:33:59.747Z,-0.10
2019-01-25T23:36:29.152Z,-0.20
2019-01-25T23:43:57.098Z,0.00
2019-01-25T23:48:55.585Z,0.10
